Time;durP1;ratioP1;P1;durP2;ratioP2;P2;SDS_P1;SDS_P2;PMS_P1;PMS_P2;Temp;Humidity;BMP_temperature;BMP_pressure;BME280_temperature;BME280_humidity;BME280_pressure;Samples;Min_cycle;Max_cycle;Signal;HPM_P1;HPM_P2
2021/07/29 00:00:45;;;;;;;7.00;5.57;;;;;;;19.18;59.67;100442.22;5057821;28;20176;-67
2021/07/29 00:03:10;;;;;;;6.50;5.90;;;;;;;19.35;59.00;100447.00;5057597;28;20531;-67
2021/07/29 00:05:36;;;;;;;9.60;6.10;;;;;;;19.43;59.34;100444.09;5058107;28;20239;-66
2021/07/29 00:08:03;;;;;;;7.47;5.90;;;;;;;19.31;59.46;100438.28;5057458;28;20170;-67
2021/07/29 00:10:29;;;;;;;7.90;5.87;;;;;;;18.91;61.17;100442.16;5057588;28;20550;-67
2021/07/29 00:12:54;;;;;;;7.80;5.03;;;;;;;18.93;61.39;100431.53;5057718;28;20447;-67
2021/07/29 00:15:20;;;;;;;7.10;5.03;;;;;;;19.17;60.28;100432.56;5057534;28;20173;-66
2021/07/29 00:20:15;;;;;;;7.13;5.70;;;;;;;19.11;60.89;100430.13;5057984;28;20244;-68
2021/07/29 00:22:42;;;;;;;6.70;5.90;;;;;;;19.11;60.38;100420.41;5057197;28;20742;-68
2021/07/29 00:25:12;;;;;;;7.30;5.50;;;;;;;19.11;60.64;100423.06;5057540;28;20561;-69
2021/07/29 00:27:38;;;;;;;5.57;5.03;;;;;;;19.45;59.33;100418.50;5057722;28;20416;-68
2021/07/29 00:30:04;;;;;;;7.97;6.20;;;;;;;19.17;60.65;100417.59;5057404;28;20734;-69
2021/07/29 00:32:30;;;;;;;6.43;5.53;;;;;;;19.28;60.97;100414.63;5057386;28;20428;-69
2021/07/29 00:34:55;;;;;;;8.43;7.60;;;;;;;19.07;60.87;100424.06;5057572;28;20402;-69
2021/07/29 00:37:20;;;;;;;7.30;5.67;;;;;;;19.08;61.01;100415.25;5057358;28;20527;-68
2021/07/29 00:39:45;;;;;;;7.97;6.67;;;;;;;19.04;61.37;100413.59;5060890;28;20252;-68
2021/07/29 00:42:11;;;;;;;8.17;6.80;;;;;;;19.49;59.84;100414.84;5061577;28;20516;-69
2021/07/29 00:44:37;;;;;;;6.37;5.73;;;;;;;19.10;60.93;100409.91;5060797;28;20174;-68
2021/07/29 00:47:03;;;;;;;6.73;5.53;;;;;;;19.60;59.29;100403.91;5060997;28;20262;-67
2021/07/29 00:49:29;;;;;;;7.30;5.30;;;;;;;19.35;59.28;100402.06;5061306;28;20513;-68
2021/07/29 00:51:54;;;;;;;6.27;5.40;;;;;;;19.65;59.03;100389.59;5060772;28;20512;-69
2021/07/29 00:54:23;;;;;;;9.47;5.97;;;;;;;19.75;58.33;100392.78;5060863;28;20213;-70
2021/07/29 00:56:49;;;;;;;6.80;5.40;;;;;;;19.53;58.77;100384.72;5061069;28;20169;-68
2021/07/29 00:59:15;;;;;;;6.03;5.43;;;;;;;19.37;59.70;100375.59;5060078;28;20423;-68
2021/07/29 01:01:40;;;;;;;5.60;4.97;;;;;;;18.83;60.30;100384.25;5060680;28;20174;-68
2021/07/29 01:04:05;;;;;;;5.90;5.30;;;;;;;19.58;58.53;100382.81;5060755;28;20200;-68
2021/07/29 01:06:30;;;;;;;5.70;5.00;;;;;;;19.36;58.50;100385.28;5060348;28;20197;-69
2021/07/29 01:09:02;;;;;;;6.30;5.70;;;;;;;19.61;57.82;100381.84;5060522;28;20480;-68
2021/07/29 01:11:27;;;;;;;7.43;4.63;;;;;;;19.35;58.36;100384.41;5060087;28;20539;-69
2021/07/29 01:13:52;;;;;;;5.60;5.10;;;;;;;19.35;57.76;100387.06;5060292;28;20414;-69
2021/07/29 01:16:18;;;;;;;4.97;4.50;;;;;;;19.67;57.13;100381.63;5060428;28;20173;-68
2021/07/29 01:18:43;;;;;;;6.00;4.50;;;;;;;19.09;57.78;100381.75;5060715;28;20442;-68
2021/07/29 01:21:08;;;;;;;4.90;4.50;;;;;;;19.04;57.73;100381.91;5059459;28;20273;-68
2021/07/29 01:23:33;;;;;;;6.07;4.60;;;;;;;19.42;57.07;100365.72;5060885;28;20236;-68
2021/07/29 01:25:59;;;;;;;6.93;4.73;;;;;;;19.48;56.63;100371.69;5060881;28;20195;-69
2021/07/29 01:28:24;;;;;;;5.43;4.90;;;;;;;19.01;57.94;100363.47;5060097;28;20566;-68
2021/07/29 01:30:49;;;;;;;5.17;4.77;;;;;;;19.31;56.26;100355.50;5060000;28;20182;-69
2021/07/29 01:33:15;;;;;;;5.70;4.83;;;;;;;19.53;55.66;100348.56;5060221;28;20177;-68
2021/07/29 01:35:42;;;;;;;5.10;4.60;;;;;;;19.29;55.79;100349.41;5059962;28;20579;-69
2021/07/29 01:38:07;;;;;;;6.80;4.73;;;;;;;19.45;55.75;100355.03;5059892;28;20173;-69
2021/07/29 01:40:33;;;;;;;5.13;4.63;;;;;;;19.55;55.12;100343.22;5060492;28;20382;-69
2021/07/29 01:42:58;;;;;;;4.97;4.57;;;;;;;19.53;55.50;100348.56;5059975;28;20193;-69
2021/07/29 01:45:23;;;;;;;5.27;4.80;;;;;;;19.62;54.69;100341.22;5059944;28;20219;-68
2021/07/29 01:47:48;;;;;;;5.03;4.30;;;;;;;19.89;53.27;100334.19;5060082;28;20173;-69
2021/07/29 01:50:14;;;;;;;5.90;4.40;;;;;;;19.69;53.88;100332.19;5059417;28;20489;-69
2021/07/29 01:52:39;;;;;;;4.93;4.43;;;;;;;19.24;54.77;100335.47;5059571;28;20169;-69
2021/07/29 01:55:05;;;;;;;4.90;4.40;;;;;;;19.51;54.69;100337.19;5059933;28;20180;-69
2021/07/29 01:57:31;;;;;;;4.83;4.20;;;;;;;19.63;54.25;100338.56;5059389;28;20184;-69
2021/07/29 01:59:56;;;;;;;6.07;4.30;;;;;;;19.51;54.90;100338.97;5059559;28;20416;-68
2021/07/29 02:02:21;;;;;;;5.10;4.20;;;;;;;19.45;54.94;100328.59;5059796;28;20397;-69
2021/07/29 02:04:47;;;;;;;5.10;4.70;;;;;;;19.08;54.97;100338.63;5059222;28;20185;-68
2021/07/29 02:07:12;;;;;;;5.40;4.50;;;;;;;19.09;55.44;100337.72;5059245;28;20194;-70
2021/07/29 02:09:37;;;;;;;6.30;4.27;;;;;;;19.38;54.81;100333.22;5059787;28;20197;-69
2021/07/29 02:12:03;;;;;;;6.13;4.90;;;;;;;19.17;54.69;100338.31;5059298;28;20173;-68
2021/07/29 02:14:28;;;;;;;4.90;4.17;;;;;;;19.46;55.24;100336.47;5059097;28;20253;-69
2021/07/29 02:16:54;;;;;;;6.20;4.47;;;;;;;19.40;54.51;100319.97;5059747;28;20170;-69
2021/07/29 02:19:19;;;;;;;5.33;4.50;;;;;;;19.64;54.24;100331.47;5059046;28;20554;-68
2021/07/29 02:21:44;;;;;;;5.77;4.30;;;;;;;19.59;54.74;100326.38;5059088;28;20239;-67
2021/07/29 02:24:10;;;;;;;4.70;4.30;;;;;;;19.54;54.36;100328.31;5059108;28;20230;-69
2021/07/29 02:26:36;;;;;;;6.60;4.83;;;;;;;19.73;54.56;100323.22;5058932;28;20181;-66
2021/07/29 02:29:01;;;;;;;7.07;4.40;;;;;;;19.31;55.30;100331.72;5058807;28;20877;-69
2021/07/29 02:31:27;;;;;;;5.33;4.83;;;;;;;19.53;55.26;100316.00;5059221;28;20220;-67
2021/07/29 02:33:52;;;;;;;4.73;4.30;;;;;;;19.23;55.57;100317.88;5058565;28;20170;-68
2021/07/29 02:36:17;;;;;;;6.20;5.00;;;;;;;19.26;56.06;100312.50;5058789;28;20177;-68
2021/07/29 02:38:42;;;;;;;5.33;4.40;;;;;;;19.15;56.53;100313.72;5059097;28;20193;-67
2021/07/29 02:41:08;;;;;;;5.47;4.97;;;;;;;19.53;55.57;100306.25;5058753;28;20251;-67
2021/07/29 02:43:33;;;;;;;6.10;5.00;;;;;;;19.35;55.86;100315.69;5058538;28;20223;-68
2021/07/29 02:45:58;;;;;;;5.00;4.50;;;;;;;19.34;55.84;100313.97;5059140;28;20189;-66
2021/07/29 02:48:24;;;;;;;6.23;4.37;;;;;;;18.75;57.53;100314.94;5058533;28;20272;-67
2021/07/29 02:50:53;;;;;;;5.90;4.70;;;;;;;19.14;56.62;100295.28;5058554;28;20166;-66
2021/07/29 02:53:20;;;;;;;5.13;4.73;;;;;;;19.12;56.75;100308.53;5058687;28;20162;-66
2021/07/29 02:55:45;;;;;;;4.60;4.17;;;;;;;19.22;56.35;100297.66;5058486;28;20395;-66
2021/07/29 02:58:10;;;;;;;6.43;5.17;;;;;;;19.35;56.31;100302.47;5058458;28;20787;-67
2021/07/29 03:00:35;;;;;;;5.27;4.77;;;;;;;18.83;56.88;100304.16;5058373;28;20225;-67
2021/07/29 03:03:01;;;;;;;6.07;5.00;;;;;;;19.06;56.58;100303.44;5058115;28;20536;-67
2021/07/29 03:05:26;;;;;;;5.90;5.33;;;;;;;19.19;56.72;100309.19;5058094;28;20200;-67
2021/07/29 03:07:52;;;;;;;5.60;4.93;;;;;;;19.34;55.79;100307.81;5058744;28;20158;-67
2021/07/29 03:10:17;;;;;;;5.97;5.47;;;;;;;19.25;56.01;100305.47;5058273;28;20204;-67
2021/07/29 03:12:42;;;;;;;5.60;5.10;;;;;;;18.91;56.74;100317.16;5058034;28;20177;-66
2021/07/29 03:15:08;;;;;;;5.53;5.00;;;;;;;19.30;55.88;100306.19;5058529;28;20165;-68
2021/07/29 03:17:33;;;;;;;5.37;4.87;;;;;;;19.06;56.69;100311.38;5058123;28;20173;-67
2021/07/29 03:19:58;;;;;;;6.30;5.10;;;;;;;19.40;56.16;100318.16;5058106;28;20249;-68
2021/07/29 03:22:24;;;;;;;5.33;4.83;;;;;;;19.87;55.29;100313.97;5058306;28;20549;-67
2021/07/29 03:24:49;;;;;;;5.60;4.93;;;;;;;19.48;55.87;100302.06;5058133;28;20170;-66
2021/07/29 03:27:14;;;;;;;7.67;5.07;;;;;;;19.60;55.52;100295.50;5058761;28;20181;-66
2021/07/29 03:29:40;;;;;;;5.70;4.80;;;;;;;19.39;55.93;100297.97;5057827;28;20205;-68
2021/07/29 03:32:05;;;;;;;7.33;4.90;;;;;;;19.61;55.50;100294.59;5058313;28;20446;-68
2021/07/29 03:34:31;;;;;;;4.90;4.40;;;;;;;19.29;56.57;100307.09;5058059;28;20170;-66
2021/07/29 03:36:56;;;;;;;5.73;5.23;;;;;;;19.04;56.70;100307.03;5057924;28;20185;-68
2021/07/29 03:39:21;;;;;;;5.90;5.00;;;;;;;19.18;56.63;100313.59;5057820;28;20555;-69
2021/07/29 03:41:47;;;;;;;4.97;4.47;;;;;;;18.89;56.62;100313.69;5058281;28;20174;-67
2021/07/29 03:44:12;;;;;;;8.33;4.97;;;;;;;19.06;56.92;100314.00;5057987;28;20169;-68
2021/07/29 03:46:37;;;;;;;7.63;5.20;;;;;;;18.82;57.20;100312.97;5057926;28;20165;-66
2021/07/29 03:49:03;;;;;;;5.57;4.80;;;;;;;19.35;55.89;100317.50;5058279;28;20210;-68
2021/07/29 03:51:29;;;;;;;5.10;4.70;;;;;;;19.10;56.50;100313.00;5057875;28;20169;-67
2021/07/29 03:53:54;;;;;;;5.80;5.23;;;;;;;19.33;55.85;100317.50;5057739;28;20685;-67
2021/07/29 03:56:19;;;;;;;6.00;5.43;;;;;;;19.13;56.20;100315.56;5058194;28;20170;-67
2021/07/29 03:58:45;;;;;;;5.40;4.90;;;;;;;19.25;55.86;100326.63;5057795;28;20170;-67
2021/07/29 04:01:11;;;;;;;5.90;5.13;;;;;;;19.51;55.45;100323.97;5057661;28;20169;-67
2021/07/29 04:03:36;;;;;;;7.10;5.00;;;;;;;19.23;56.13;100315.22;5058004;28;20162;-67
2021/07/29 04:06:02;;;;;;;5.10;4.70;;;;;;;19.21;56.41;100325.84;5056854;28;20520;-66
2021/07/29 04:08:27;;;;;;;6.60;5.40;;;;;;;18.97;56.78;100317.81;5057545;28;20221;-67
2021/07/29 04:10:53;;;;;;;6.93;5.47;;;;;;;19.03;56.94;100316.75;5058319;28;20474;-67
2021/07/29 04:13:19;;;;;;;6.07;5.57;;;;;;;18.65;57.75;100316.16;5059275;28;20173;-67
2021/07/29 04:15:44;;;;;;;6.37;5.80;;;;;;;18.67;57.77;100314.31;5061379;28;20661;-67
2021/07/29 04:18:10;;;;;;;6.00;5.50;;;;;;;18.49;58.64;100321.03;5061986;28;20173;-67
2021/07/29 04:20:35;;;;;;;7.30;5.67;;;;;;;18.84;57.44;100321.72;5061476;28;20193;-68
2021/07/29 04:23:00;;;;;;;5.77;5.23;;;;;;;18.96;57.04;100325.81;5061166;28;20244;-66
2021/07/29 04:25:26;;;;;;;6.67;5.60;;;;;;;18.92;57.24;100332.09;5061931;28;20177;-66
2021/07/29 04:27:51;;;;;;;5.80;5.30;;;;;;;19.11;57.08;100338.50;5061206;28;20223;-67
2021/07/29 04:30:16;;;;;;;5.33;4.83;;;;;;;18.71;57.78;100339.72;5061316;28;20598;-67
2021/07/29 04:32:41;;;;;;;5.40;4.90;;;;;;;18.58;58.42;100331.31;5061558;28;20546;-68
2021/07/29 04:35:07;;;;;;;5.60;5.00;;;;;;;18.50;58.74;100350.03;5061107;28;20184;-68
2021/07/29 04:37:33;;;;;;;4.90;4.50;;;;;;;18.94;57.18;100335.53;5061081;28;20170;-68
2021/07/29 04:39:58;;;;;;;7.40;5.53;;;;;;;19.56;55.68;100333.53;5061595;28;20406;-68
2021/07/29 04:42:23;;;;;;;5.50;4.90;;;;;;;20.76;52.30;100331.84;5060930;28;20181;-68
2021/07/29 04:44:49;;;;;;;7.50;5.07;;;;;;;20.36;52.95;100315.69;5060961;28;20173;-68
2021/07/29 04:47:16;;;;;;;4.97;4.57;;;;;;;19.50;55.44;100326.69;5061444;28;20537;-67
2021/07/29 04:49:42;;;;;;;8.23;5.10;;;;;;;19.13;56.87;100327.88;5060812;28;20288;-68
2021/07/29 04:52:07;;;;;;;5.33;4.83;;;;;;;19.35;56.43;100322.78;5060824;28;20499;-68
2021/07/29 04:54:32;;;;;;;6.57;5.40;;;;;;;19.88;54.98;100326.25;5061094;28;20190;-69
2021/07/29 04:56:58;;;;;;;5.93;5.10;;;;;;;19.29;56.34;100322.97;5060782;28;20259;-68
2021/07/29 04:59:23;;;;;;;5.20;4.70;;;;;;;20.11;54.57;100318.38;5060794;28;20635;-68
2021/07/29 05:01:49;;;;;;;5.20;4.80;;;;;;;19.94;54.22;100339.28;5061175;28;20472;-68
2021/07/29 05:04:14;;;;;;;4.87;4.47;;;;;;;20.34;53.38;100324.59;5060436;28;20255;-68
2021/07/29 05:06:40;;;;;;;5.20;4.80;;;;;;;20.31;53.32;100330.88;5060444;28;20427;-67
2021/07/29 05:09:05;;;;;;;4.77;4.37;;;;;;;21.03;51.10;100319.25;5060730;28;20235;-67
2021/07/29 05:11:30;;;;;;;5.03;4.53;;;;;;;21.96;48.36;100314.50;5060439;28;20177;-68
2021/07/29 05:13:56;;;;;;;5.10;4.60;;;;;;;22.13;47.81;100316.41;5060242;28;20542;-68
2021/07/29 05:16:21;;;;;;;4.70;4.20;;;;;;;23.16;45.00;100303.59;5060806;28;20271;-67
2021/07/29 05:18:46;;;;;;;5.90;4.50;;;;;;;24.33;42.91;100298.47;5060163;28;20162;-67
2021/07/29 05:21:12;;;;;;;5.73;4.30;;;;;;;23.37;44.31;100296.34;5060168;28;20170;-66
2021/07/29 05:23:37;;;;;;;5.93;4.30;;;;;;;24.23;42.78;100295.44;5059434;28;20252;-67
2021/07/29 05:26:03;;;;;;;6.00;4.57;;;;;;;23.59;43.83;100299.72;5060113;28;20208;-67
2021/07/29 05:28:28;;;;;;;4.90;4.50;;;;;;;24.04;42.37;100290.25;5061028;28;20205;-68
2021/07/29 05:30:53;;;;;;;5.13;4.10;;;;;;;23.76;44.00;100293.50;5061061;28;20170;-67
2021/07/29 05:33:19;;;;;;;4.50;4.10;;;;;;;24.64;41.26;100292.31;5059950;28;20166;-67
2021/07/29 05:35:44;;;;;;;5.00;4.10;;;;;;;25.36;40.04;100297.13;5060284;28;20165;-67
2021/07/29 05:38:09;;;;;;;4.50;3.97;;;;;;;24.08;43.05;100301.59;5060099;28;20193;-68
2021/07/29 05:40:35;;;;;;;4.80;4.30;;;;;;;23.69;43.68;100298.28;5059700;28;20177;-68
2021/07/29 05:43:01;;;;;;;8.63;4.30;;;;;;;23.69;43.13;100287.63;5060124;28;20169;-67
2021/07/29 05:45:28;;;;;;;5.93;4.67;;;;;;;23.11;44.90;100294.09;5059728;28;20547;-67
2021/07/29 05:47:53;;;;;;;5.13;4.70;;;;;;;23.78;43.48;100284.47;5059880;28;20176;-67
2021/07/29 05:50:19;;;;;;;8.87;4.87;;;;;;;24.06;43.00;100296.38;5059887;28;20710;-67
2021/07/29 05:52:44;;;;;;;4.90;4.40;;;;;;;24.95;40.44;100284.34;5059476;28;20176;-67
2021/07/29 05:55:09;;;;;;;4.50;4.10;;;;;;;23.67;42.76;100295.69;5059629;28;20551;-67
2021/07/29 05:57:35;;;;;;;5.00;4.27;;;;;;;25.16;39.87;100282.25;5059785;28;20200;-67
2021/07/29 06:00:00;;;;;;;4.77;4.00;;;;;;;25.77;38.79;100299.09;5059333;28;20216;-67
2021/07/29 06:02:26;;;;;;;4.00;3.60;;;;;;;26.36;36.80;100283.00;5059130;28;20166;-67
2021/07/29 06:04:51;;;;;;;5.17;3.70;;;;;;;26.10;37.36;100290.00;5059592;28;20444;-67
2021/07/29 06:07:16;;;;;;;5.03;4.10;;;;;;;23.08;43.70;100303.09;5059219;28;20204;-66
2021/07/29 06:09:42;;;;;;;4.43;4.00;;;;;;;22.17;46.13;100286.13;5059293;28;20272;-67
2021/07/29 06:12:07;;;;;;;4.20;3.90;;;;;;;24.67;41.45;100286.81;5059820;28;20191;-66
2021/07/29 06:14:32;;;;;;;4.27;3.87;;;;;;;24.25;41.42;100295.34;5059002;28;20178;-66
2021/07/29 06:16:57;;;;;;;7.30;4.60;;;;;;;25.99;37.51;100301.31;5058955;28;20174;-67
2021/07/29 06:19:29;;;;;;;6.07;4.43;;;;;;;25.88;38.02;100298.44;5059597;28;20162;-68
2021/07/29 06:21:56;;;;;;;4.27;3.70;;;;;;;26.22;37.52;100305.25;5058928;28;20802;-68
2021/07/29 06:24:21;;;;;;;5.77;3.70;;;;;;;25.35;39.09;100309.59;5058786;28;20412;-67
2021/07/29 06:26:48;;;;;;;3.83;3.53;;;;;;;24.74;40.00;100300.66;5059610;28;20401;-68
2021/07/29 06:29:13;;;;;;;6.20;4.07;;;;;;;23.17;43.05;100302.66;5058785;28;20274;-68
2021/07/29 06:31:40;;;;;;;6.00;4.07;;;;;;;24.32;40.54;100305.59;5058661;28;20456;-68
2021/07/29 06:34:05;;;;;;;6.60;4.63;;;;;;;23.17;43.48;100312.44;5059038;28;20419;-67
2021/07/29 06:36:30;;;;;;;4.30;3.90;;;;;;;23.36;42.64;100307.91;5057822;28;20531;-68
2021/07/29 06:38:57;;;;;;;7.07;6.37;;;;;;;24.19;40.98;100307.19;5058733;28;20169;-67
2021/07/29 06:41:23;;;;;;;5.07;4.10;;;;;;;23.62;42.37;100307.53;5059099;28;20180;-67
2021/07/29 06:43:48;;;;;;;9.00;6.80;;;;;;;21.77;47.14;100325.94;5058594;28;20502;-68
2021/07/29 06:46:13;;;;;;;6.60;4.10;;;;;;;22.12;45.89;100331.50;5058718;28;20178;-68
2021/07/29 06:48:39;;;;;;;5.20;4.20;;;;;;;21.26;48.18;100330.72;5058761;28;20205;-67
2021/07/29 06:51:05;;;;;;;7.20;4.47;;;;;;;20.79;48.95;100336.16;5058669;28;20261;-67
2021/07/29 06:53:32;;;;;;;9.20;6.90;;;;;;;23.14;43.46;100336.53;5058169;28;20477;-67
2021/07/29 06:55:59;;;;;;;8.07;5.50;;;;;;;23.12;44.09;100322.41;5058951;28;20400;-67
2021/07/29 06:58:24;;;;;;;7.80;5.03;;;;;;;22.97;44.02;100321.38;5058130;28;20422;-68
2021/07/29 07:00:49;;;;;;;7.00;4.20;;;;;;;22.11;45.49;100332.41;5058286;28;20416;-67
2021/07/29 07:03:15;;;;;;;5.33;4.23;;;;;;;23.23;43.47;100320.09;5058517;28;20578;-68
2021/07/29 07:05:46;;;;;;;6.47;5.10;;;;;;;22.67;45.09;100329.88;5058128;28;20201;-67
2021/07/29 07:08:12;;;;;;;4.40;4.00;;;;;;;22.01;46.25;100328.44;5058186;28;20243;-68
2021/07/29 07:10:38;;;;;;;8.93;4.37;;;;;;;21.06;48.16;100328.88;5058346;28;20412;-68
2021/07/29 07:13:03;;;;;;;5.63;4.63;;;;;;;22.41;45.72;100337.28;5058062;28;20771;-67
2021/07/29 07:15:28;;;;;;;5.90;4.10;;;;;;;22.26;45.83;100337.94;5058091;28;20184;-69
2021/07/29 07:17:55;;;;;;;5.50;4.03;;;;;;;23.18;42.06;100325.66;5058482;28;20173;-68
2021/07/29 07:20:20;;;;;;;5.17;3.80;;;;;;;23.14;41.40;100326.75;5058060;28;20179;-69
2021/07/29 07:22:45;;;;;;;4.00;3.40;;;;;;;25.08;37.82;100332.53;5056971;28;20728;-66
2021/07/29 07:25:10;;;;;;;6.43;3.63;;;;;;;24.96;37.41;100318.94;5058490;28;20185;-67
2021/07/29 07:27:36;;;;;;;4.90;4.10;;;;;;;22.20;42.75;100336.44;5057843;28;20184;-67
2021/07/29 07:30:02;;;;;;;6.70;4.20;;;;;;;24.02;40.47;100334.75;5057842;28;20205;-67
2021/07/29 07:32:28;;;;;;;7.40;4.23;;;;;;;25.29;37.69;100330.41;5058776;28;20251;-68
2021/07/29 07:34:53;;;;;;;5.73;4.27;;;;;;;23.27;40.69;100336.78;5057720;28;20424;-68
2021/07/29 07:37:19;;;;;;;4.60;3.30;;;;;;;22.79;41.11;100337.28;5057677;28;20174;-68
2021/07/29 07:39:45;;;;;;;5.03;3.70;;;;;;;22.79;41.05;100331.97;5058194;28;20256;-67
2021/07/29 07:42:11;;;;;;;4.37;3.40;;;;;;;25.35;37.29;100324.75;5057622;28;20502;-69
2021/07/29 07:44:36;;;;;;;3.90;3.50;;;;;;;23.43;39.10;100324.41;5057460;28;20181;-70
2021/07/29 07:47:01;;;;;;;4.40;3.53;;;;;;;24.53;37.49;100322.22;5059432;28;20201;-69
2021/07/29 07:49:26;;;;;;;4.43;3.40;;;;;;;25.82;34.91;100325.53;5061911;28;20590;-68
2021/07/29 07:51:52;;;;;;;19.20;3.60;;;;;;;25.20;35.90;100319.31;5061875;28;20174;-68
2021/07/29 07:54:17;;;;;;;3.80;3.20;;;;;;;24.83;36.33;100336.56;5062053;28;20539;-68
2021/07/29 07:56:46;;;;;;;5.90;3.43;;;;;;;26.02;34.21;100316.28;5061843;28;20177;-68
2021/07/29 07:59:11;;;;;;;5.60;3.47;;;;;;;23.96;38.01;100327.94;5061715;28;20227;-68
2021/07/29 08:01:38;;;;;;;9.47;3.40;;;;;;;23.29;39.44;100335.75;5062180;28;20482;-69
2021/07/29 08:04:03;;;;;;;6.53;3.77;;;;;;;23.13;39.81;100326.84;5061075;28;20219;-69
2021/07/29 08:06:28;;;;;;;7.53;4.17;;;;;;;24.79;37.20;100319.91;5061191;28;20443;-68
2021/07/29 08:08:54;;;;;;;3.67;3.20;;;;;;;25.34;35.21;100325.69;5061892;28;20279;-68
2021/07/29 08:11:19;;;;;;;4.80;3.50;;;;;;;25.29;34.93;100317.06;5061301;28;20181;-68
2021/07/29 08:13:44;;;;;;;4.37;3.53;;;;;;;25.69;34.61;100312.06;5061273;28;20169;-69
2021/07/29 08:16:10;;;;;;;4.43;3.50;;;;;;;25.00;36.19;100333.81;5061979;28;20169;-69
2021/07/29 08:18:35;;;;;;;7.33;4.03;;;;;;;24.96;36.29;100334.09;5060438;28;20177;-67
2021/07/29 08:21:00;;;;;;;4.27;3.57;;;;;;;26.44;33.59;100317.25;5060920;28;20196;-67
2021/07/29 08:23:28;;;;;;;5.80;3.40;;;;;;;24.49;36.48;100328.66;5060844;28;20306;-68
2021/07/29 08:25:53;;;;;;;6.73;3.73;;;;;;;25.62;34.48;100322.25;5061223;28;20260;-67
2021/07/29 08:28:18;;;;;;;4.87;3.37;;;;;;;26.59;33.08;100325.22;5061156;28;20824;-68
2021/07/29 08:30:43;;;;;;;3.73;3.40;;;;;;;27.43;32.37;100321.53;5061144;28;20174;-68
2021/07/29 08:33:10;;;;;;;6.47;3.43;;;;;;;27.68;32.21;100312.66;5061187;28;20243;-68
2021/07/29 08:35:38;;;;;;;4.23;3.40;;;;;;;28.55;30.96;100318.19;5061224;28;20166;-67
2021/07/29 08:38:04;;;;;;;4.23;3.30;;;;;;;28.15;30.13;100317.53;5061056;28;20423;-67
2021/07/29 08:40:29;;;;;;;10.20;4.53;;;;;;;28.20;30.00;100324.28;5060969;28;20420;-68
2021/07/29 08:42:55;;;;;;;5.13;3.43;;;;;;;27.13;31.42;100327.09;5061002;28;20177;-68
2021/07/29 08:45:21;;;;;;;4.67;3.13;;;;;;;27.40;31.83;100321.75;5060980;28;20212;-67
2021/07/29 08:47:46;;;;;;;3.90;3.20;;;;;;;27.41;31.88;100326.13;5060579;28;20846;-66
2021/07/29 08:50:12;;;;;;;3.43;3.13;;;;;;;27.83;29.91;100308.09;5060872;28;20464;-66
2021/07/29 08:52:37;;;;;;;4.00;2.90;;;;;;;27.95;30.29;100326.94;5060421;28;20174;-66
2021/07/29 08:55:03;;;;;;;5.53;3.37;;;;;;;27.04;31.38;100328.56;5060618;28;20184;-66
2021/07/29 08:57:30;;;;;;;6.40;3.70;;;;;;;27.52;30.22;100326.28;5060833;28;20177;-67
2021/07/29 08:59:56;;;;;;;5.70;3.50;;;;;;;28.36;29.22;100304.41;5053286;28;20181;-65
2021/07/29 09:02:25;;;;;;;6.70;3.20;;;;;;;29.11;28.33;100324.88;5042678;28;20425;-66
2021/07/29 09:05:06;;;;;;;7.13;3.00;;;;;;;28.59;27.26;100313.47;5060673;28;20166;-66
2021/07/29 09:07:32;;;;;;;5.57;2.93;;;;;;;26.71;29.94;100330.69;5051457;28;20688;-67
2021/07/29 09:09:58;;;;;;;3.67;3.07;;;;;;;27.53;28.75;100311.91;5040169;28;20742;-66
2021/07/29 09:12:24;;;;;;;6.17;2.97;;;;;;;27.27;28.77;100327.03;5040356;28;20421;-65
2021/07/29 09:14:51;;;;;;;3.87;2.90;;;;;;;27.52;29.01;100337.00;5040110;28;20327;-65
2021/07/29 09:17:17;;;;;;;3.53;2.70;;;;;;;27.16;29.07;100324.25;5059627;28;20447;-65
2021/07/29 09:19:47;;;;;;;4.20;3.13;;;;;;;26.84;29.59;100338.75;5060289;28;20431;-65
2021/07/29 09:22:20;;;;;;;7.80;3.07;;;;;;;26.91;29.42;100330.34;5060029;28;20529;-65
2021/07/29 09:25:01;;;;;;;5.73;3.23;;;;;;;26.17;30.24;100341.22;5059963;28;20421;-65
2021/07/29 09:27:39;;;;;;;5.23;2.90;;;;;;;25.78;30.19;100340.03;5059914;28;20408;-65
2021/07/29 09:30:24;;;;;;;4.27;2.90;;;;;;;27.05;28.76;100343.69;5059913;28;20474;-65
2021/07/29 09:33:00;;;;;;;4.33;2.90;;;;;;;25.95;30.48;100330.97;5059740;28;20676;-66
2021/07/29 09:35:28;;;;;;;4.80;2.97;;;;;;;25.35;30.43;100349.63;5060993;28;20492;-66
2021/07/29 09:37:53;;;;;;;5.50;3.30;;;;;;;24.06;33.36;100349.63;5060145;28;20497;-67
2021/07/29 09:40:19;;;;;;;5.90;4.20;;;;;;;25.43;31.78;100330.50;5059102;28;20829;-66
2021/07/29 09:42:44;;;;;;;5.50;2.90;;;;;;;26.19;31.10;100332.13;5059534;28;20181;-67
2021/07/29 09:45:09;;;;;;;6.67;3.20;;;;;;;27.31;29.60;100322.34;5060094;28;20451;-67
2021/07/29 09:47:36;;;;;;;4.03;3.03;;;;;;;26.22;30.64;100331.97;5059030;28;20173;-67
2021/07/29 09:50:01;;;;;;;4.07;3.00;;;;;;;25.49;32.15;100332.81;5059518;28;20202;-68
2021/07/29 09:52:27;;;;;;;5.20;3.37;;;;;;;26.00;31.48;100329.72;5059909;28;20495;-67
2021/07/29 09:54:53;;;;;;;4.47;3.40;;;;;;;25.03;32.91;100338.13;5058644;28;20174;-67
2021/07/29 09:57:18;;;;;;;3.80;3.00;;;;;;;23.76;35.12;100350.25;5059456;28;20427;-67
2021/07/29 09:59:43;;;;;;;5.07;3.00;;;;;;;24.21;34.51;100342.63;5060014;28;20169;-67
2021/07/29 10:02:09;;;;;;;3.97;2.93;;;;;;;23.60;35.81;100346.63;5059328;28;20185;-67
2021/07/29 10:04:47;;;;;;;4.20;3.10;;;;;;;24.73;33.80;100340.72;5059253;28;20173;-67
2021/07/29 10:07:18;;;;;;;5.13;3.10;;;;;;;23.47;35.65;100343.75;5049926;28;20559;-67
2021/07/29 10:09:45;;;;;;;3.80;3.40;;;;;;;23.68;35.98;100355.97;5038337;28;20476;-67
2021/07/29 10:12:13;;;;;;;6.70;3.10;;;;;;;24.59;34.34;100344.13;5039115;28;20516;-66
2021/07/29 10:14:46;;;;;;;3.80;2.80;;;;;;;24.58;33.71;100345.06;5038177;28;20424;-66
2021/07/29 10:17:11;;;;;;;3.90;3.17;;;;;;;23.86;35.12;100359.47;5039033;28;20445;-66
2021/07/29 10:20:11;;;;;;;4.93;3.47;;;;;;;22.98;36.78;100360.31;5039165;28;20495;-66
2021/07/29 10:22:37;;;;;;;5.07;3.37;;;;;;;21.99;38.68;100375.44;5038629;28;20222;-67
2021/07/29 10:25:02;;;;;;;10.00;3.17;;;;;;;22.16;38.44;100359.63;5038753;28;20463;-67
2021/07/29 10:27:28;;;;;;;5.53;3.27;;;;;;;25.09;33.61;100347.59;5044136;28;20396;-66
2021/07/29 10:29:53;;;;;;;6.70;3.80;;;;;;;24.25;34.28;100341.50;5041204;28;20205;-67
2021/07/29 10:32:48;;;;;;;5.30;3.53;;;;;;;25.08;33.80;100353.88;5058223;28;20207;-66
2021/07/29 10:35:25;;;;;;;7.40;3.60;;;;;;;24.25;34.46;100348.63;5041054;28;20502;-65
2021/07/29 10:37:53;;;;;;;4.13;3.13;;;;;;;23.41;35.99;100358.25;5058683;28;20447;-66
2021/07/29 10:40:34;;;;;;;6.13;3.60;;;;;;;22.82;37.14;100369.00;5058558;28;20829;-65
2021/07/29 10:43:23;;;;;;;3.87;3.10;;;;;;;22.37;38.22;100362.25;5058472;28;20422;-67
2021/07/29 10:45:53;;;;;;;5.53;3.70;;;;;;;22.26;39.40;100364.50;5058517;28;20522;-66
2021/07/29 10:51:15;;;;;;;4.97;3.60;;;;;;;22.56;38.60;100364.09;5058386;28;20458;-68
2021/07/29 10:53:45;;;;;;;5.27;3.20;;;;;;;23.80;35.61;100362.47;5058481;28;20412;-66
2021/07/29 10:56:14;;;;;;;5.43;3.40;;;;;;;24.62;33.91;100359.97;5058285;28;20412;-67
2021/07/29 10:58:41;;;;;;;4.77;3.33;;;;;;;25.44;32.68;100358.91;5058282;28;20442;-70
2021/07/29 11:01:06;;;;;;;5.83;3.37;;;;;;;24.75;34.18;100370.81;5058482;28;20859;-67
2021/07/29 11:03:32;;;;;;;6.70;3.83;;;;;;;24.13;35.07;100374.97;5057324;28;20424;-67
2021/07/29 11:06:09;;;;;;;6.70;4.07;;;;;;;23.55;36.47;100374.34;5058603;28;20205;-66
2021/07/29 11:08:34;;;;;;;7.13;3.33;;;;;;;23.14;38.09;100382.59;5057894;28;20201;-66
2021/07/29 11:11:01;;;;;;;4.93;3.80;;;;;;;23.53;37.27;100384.22;5058022;28;20482;-68
2021/07/29 11:13:27;;;;;;;5.70;4.00;;;;;;;22.95;38.37;100379.06;5057991;28;20173;-65
2021/07/29 11:15:53;;;;;;;8.03;3.80;;;;;;;22.43;39.58;100388.53;5058232;28;20411;-66
2021/07/29 11:18:19;;;;;;;8.20;3.90;;;;;;;21.40;43.90;100422.09;5057837;28;20435;-66
2021/07/29 11:20:45;;;;;;;4.23;3.80;;;;;;;21.03;46.22;100400.56;5057980;28;20177;-66
2021/07/29 11:23:14;;;;;;;3.70;3.27;;;;;;;21.33;45.68;100408.22;5057146;28;20908;-65
2021/07/29 11:25:54;;;;;;;5.57;3.80;;;;;;;22.82;42.20;100390.28;5058350;28;20470;-66